sensor_id;sensor_type;location;lat;lon;timestamp;temperature;humidity
34837;DHT22;21053;50.848;4.652;2023-04-25T00:00:27;9.40;99.90
34837;DHT22;21053;50.848;4.652;2023-04-25T00:02:53;9.40;99.90
34837;DHT22;21053;50.848;4.652;2023-04-25T00:05:26;9.60;99.90
34837;DHT22;21053;50.848;4.652;2023-04-25T00:07:52;9.70;99.90
34837;DHT22;21053;50.848;4.652;2023-04-25T00:10:19;9.60;99.90
34837;DHT22;21053;50.848;4.652;2023-04-25T00:12:49;9.70;99.90
34837;DHT22;21053;50.848;4.652;2023-04-25T00:15:16;9.80;99.90
34837;DHT22;21053;50.848;4.652;2023-04-25T00:17:47;9.80;99.90
34837;DHT22;21053;50.848;4.652;2023-04-25T00:20:16;9.90;99.90
34837;DHT22;21053;50.848;4.652;2023-04-25T00:22:45;9.90;99.90
34837;DHT22;21053;50.848;4.652;2023-04-25T00:25:10;9.80;99.90
34837;DHT22;21053;50.848;4.652;2023-04-25T00:27:42;9.80;99.90
34837;DHT22;21053;50.848;4.652;2023-04-25T00:30:09;9.50;99.90
34837;DHT22;21053;50.848;4.652;2023-04-25T00:32:38;9.50;99.90
34837;DHT22;21053;50.848;4.652;2023-04-25T00:35:06;9.70;99.90
34837;DHT22;21053;50.848;4.652;2023-04-25T00:37:34;9.80;99.90
34837;DHT22;21053;50.848;4.652;2023-04-25T00:40:00;10.00;99.90
34837;DHT22;21053;50.848;4.652;2023-04-25T00:42:29;10.00;99.90
34837;DHT22;21053;50.848;4.652;2023-04-25T00:44:59;9.80;99.90
34837;DHT22;21053;50.848;4.652;2023-04-25T00:47:28;10.00;99.90
34837;DHT22;21053;50.848;4.652;2023-04-25T00:49:55;10.10;99.90
34837;DHT22;21053;50.848;4.652;2023-04-25T00:52:22;10.10;99.90
34837;DHT22;21053;50.848;4.652;2023-04-25T00:54:50;10.10;99.90
34837;DHT22;21053;50.848;4.652;2023-04-25T00:57:19;10.20;99.90
34837;DHT22;21053;50.848;4.652;2023-04-25T00:59:48;10.10;99.90
34837;DHT22;21053;50.848;4.652;2023-04-25T01:02:15;9.80;99.90
34837;DHT22;21053;50.848;4.652;2023-04-25T01:04:42;9.80;99.90
34837;DHT22;21053;50.848;4.652;2023-04-25T01:07:09;9.70;99.90
34837;DHT22;21053;50.848;4.652;2023-04-25T01:09:38;9.80;99.90
34837;DHT22;21053;50.848;4.652;2023-04-25T01:12:05;9.70;99.90
34837;DHT22;21053;50.848;4.652;2023-04-25T01:14:37;9.90;99.90
34837;DHT22;21053;50.848;4.652;2023-04-25T01:17:06;9.90;99.90
34837;DHT22;21053;50.848;4.652;2023-04-25T01:19:39;9.90;99.90
34837;DHT22;21053;50.848;4.652;2023-04-25T01:22:10;9.90;99.90
34837;DHT22;21053;50.848;4.652;2023-04-25T01:24:37;9.90;99.90
34837;DHT22;21053;50.848;4.652;2023-04-25T01:27:05;9.80;99.90
34837;DHT22;21053;50.848;4.652;2023-04-25T01:29:32;9.80;99.90
34837;DHT22;21053;50.848;4.652;2023-04-25T01:32:00;9.80;99.90
34837;DHT22;21053;50.848;4.652;2023-04-25T01:34:27;9.60;99.90
34837;DHT22;21053;50.848;4.652;2023-04-25T01:36:57;9.60;99.90
34837;DHT22;21053;50.848;4.652;2023-04-25T01:39:24;9.40;99.90
34837;DHT22;21053;50.848;4.652;2023-04-25T01:41:51;9.30;99.90
34837;DHT22;21053;50.848;4.652;2023-04-25T01:44:23;9.20;99.90
34837;DHT22;21053;50.848;4.652;2023-04-25T01:46:51;9.30;99.90
34837;DHT22;21053;50.848;4.652;2023-04-25T01:49:17;9.40;99.90
34837;DHT22;21053;50.848;4.652;2023-04-25T01:51:46;9.30;99.90
34837;DHT22;21053;50.848;4.652;2023-04-25T01:54:15;9.30;99.90
34837;DHT22;21053;50.848;4.652;2023-04-25T01:56:49;9.20;99.90
34837;DHT22;21053;50.848;4.652;2023-04-25T01:59:16;9.10;99.90
34837;DHT22;21053;50.848;4.652;2023-04-25T02:01:42;9.10;99.90
34837;DHT22;21053;50.848;4.652;2023-04-25T02:04:07;9.10;99.90
34837;DHT22;21053;50.848;4.652;2023-04-25T02:06:33;9.10;99.90
34837;DHT22;21053;50.848;4.652;2023-04-25T02:09:00;9.30;99.90
34837;DHT22;21053;50.848;4.652;2023-04-25T02:11:27;9.30;99.90
34837;DHT22;21053;50.848;4.652;2023-04-25T02:13:56;9.10;99.90
34837;DHT22;21053;50.848;4.652;2023-04-25T02:16:24;9.10;99.90
34837;DHT22;21053;50.848;4.652;2023-04-25T02:18:54;9.00;99.90
34837;DHT22;21053;50.848;4.652;2023-04-25T02:21:20;9.00;99.90
34837;DHT22;21053;50.848;4.652;2023-04-25T02:23:49;9.10;99.90
34837;DHT22;21053;50.848;4.652;2023-04-25T02:26:20;9.10;99.90
34837;DHT22;21053;50.848;4.652;2023-04-25T02:28:48;9.10;99.90
34837;DHT22;21053;50.848;4.652;2023-04-25T02:31:15;9.00;99.90
34837;DHT22;21053;50.848;4.652;2023-04-25T02:33:41;9.10;99.90
34837;DHT22;21053;50.848;4.652;2023-04-25T02:36:08;9.10;99.90
34837;DHT22;21053;50.848;4.652;2023-04-25T02:38:37;9.10;99.90
34837;DHT22;21053;50.848;4.652;2023-04-25T02:41:02;9.30;99.90
34837;DHT22;21053;50.848;4.652;2023-04-25T02:43:30;9.30;99.90
34837;DHT22;21053;50.848;4.652;2023-04-25T02:46:02;9.40;99.90
34837;DHT22;21053;50.848;4.652;2023-04-25T02:48:31;9.50;99.90
34837;DHT22;21053;50.848;4.652;2023-04-25T02:50:59;9.50;99.90
34837;DHT22;21053;50.848;4.652;2023-04-25T02:53:26;9.40;99.90
34837;DHT22;21053;50.848;4.652;2023-04-25T02:55:52;9.10;99.90
34837;DHT22;21053;50.848;4.652;2023-04-25T02:58:19;9.00;99.90
34837;DHT22;21053;50.848;4.652;2023-04-25T03:00:48;8.90;99.90
34837;DHT22;21053;50.848;4.652;2023-04-25T03:03:13;9.00;99.90
34837;DHT22;21053;50.848;4.652;2023-04-25T03:05:40;9.10;99.90
34837;DHT22;21053;50.848;4.652;2023-04-25T03:08:09;9.10;99.90
34837;DHT22;21053;50.848;4.652;2023-04-25T03:10:34;9.20;99.90
34837;DHT22;21053;50.848;4.652;2023-04-25T03:13:03;9.30;99.90
34837;DHT22;21053;50.848;4.652;2023-04-25T03:15:29;9.30;99.90
34837;DHT22;21053;50.848;4.652;2023-04-25T03:17:55;9.40;99.90
34837;DHT22;21053;50.848;4.652;2023-04-25T03:20:20;9.40;99.90
34837;DHT22;21053;50.848;4.652;2023-04-25T03:22:46;9.40;99.90
34837;DHT22;21053;50.848;4.652;2023-04-25T03:25:12;9.40;99.90
34837;DHT22;21053;50.848;4.652;2023-04-25T03:27:38;9.30;99.90
34837;DHT22;21053;50.848;4.652;2023-04-25T03:30:05;9.40;99.90
34837;DHT22;21053;50.848;4.652;2023-04-25T03:32:31;9.40;99.90
34837;DHT22;21053;50.848;4.652;2023-04-25T03:34:57;9.40;99.90
34837;DHT22;21053;50.848;4.652;2023-04-25T03:37:24;9.30;99.90
34837;DHT22;21053;50.848;4.652;2023-04-25T03:39:51;9.20;99.90
34837;DHT22;21053;50.848;4.652;2023-04-25T03:42:18;9.10;99.90
34837;DHT22;21053;50.848;4.652;2023-04-25T03:44:43;9.00;99.90
34837;DHT22;21053;50.848;4.652;2023-04-25T03:47:24;8.90;99.90
34837;DHT22;21053;50.848;4.652;2023-04-25T03:49:55;8.90;99.90
34837;DHT22;21053;50.848;4.652;2023-04-25T03:52:21;8.60;99.90
34837;DHT22;21053;50.848;4.652;2023-04-25T03:54:47;8.50;99.90
34837;DHT22;21053;50.848;4.652;2023-04-25T03:57:15;8.30;99.90
34837;DHT22;21053;50.848;4.652;2023-04-25T03:59:43;8.10;99.90
34837;DHT22;21053;50.848;4.652;2023-04-25T04:02:12;7.90;99.90
34837;DHT22;21053;50.848;4.652;2023-04-25T04:04:41;7.80;99.90
34837;DHT22;21053;50.848;4.652;2023-04-25T04:07:11;7.70;99.90
34837;DHT22;21053;50.848;4.652;2023-04-25T04:09:40;7.70;99.90
34837;DHT22;21053;50.848;4.652;2023-04-25T04:12:06;7.70;99.90
34837;DHT22;21053;50.848;4.652;2023-04-25T04:14:33;7.80;99.90
34837;DHT22;21053;50.848;4.652;2023-04-25T04:16:58;7.80;99.90
34837;DHT22;21053;50.848;4.652;2023-04-25T04:19:25;7.80;99.90
34837;DHT22;21053;50.848;4.652;2023-04-25T04:21:51;7.90;99.90
34837;DHT22;21053;50.848;4.652;2023-04-25T04:24:16;8.00;99.90
34837;DHT22;21053;50.848;4.652;2023-04-25T04:26:45;8.10;99.90
34837;DHT22;21053;50.848;4.652;2023-04-25T04:29:14;8.00;99.90
34837;DHT22;21053;50.848;4.652;2023-04-25T04:31:50;8.10;99.90
34837;DHT22;21053;50.848;4.652;2023-04-25T04:37:50;8.20;99.90
34837;DHT22;21053;50.848;4.652;2023-04-25T04:40:19;8.40;99.90
34837;DHT22;21053;50.848;4.652;2023-04-25T04:42:45;8.40;99.90
34837;DHT22;21053;50.848;4.652;2023-04-25T04:45:21;8.60;99.90
34837;DHT22;21053;50.848;4.652;2023-04-25T04:47:47;8.80;99.90
34837;DHT22;21053;50.848;4.652;2023-04-25T04:50:17;8.90;99.90
34837;DHT22;21053;50.848;4.652;2023-04-25T04:52:45;8.80;99.90
34837;DHT22;21053;50.848;4.652;2023-04-25T04:55:11;8.80;99.90
34837;DHT22;21053;50.848;4.652;2023-04-25T04:57:40;8.90;99.90
34837;DHT22;21053;50.848;4.652;2023-04-25T05:00:06;8.80;99.90
34837;DHT22;21053;50.848;4.652;2023-04-25T05:02:40;8.90;99.90
34837;DHT22;21053;50.848;4.652;2023-04-25T05:05:06;8.90;99.90
34837;DHT22;21053;50.848;4.652;2023-04-25T05:07:35;8.90;99.90
34837;DHT22;21053;50.848;4.652;2023-04-25T05:10:04;8.90;99.90
34837;DHT22;21053;50.848;4.652;2023-04-25T05:12:30;8.90;99.90
34837;DHT22;21053;50.848;4.652;2023-04-25T05:14:59;8.90;99.90
34837;DHT22;21053;50.848;4.652;2023-04-25T05:17:26;8.80;99.90
34837;DHT22;21053;50.848;4.652;2023-04-25T05:19:52;8.80;99.90
34837;DHT22;21053;50.848;4.652;2023-04-25T05:22:22;8.60;99.90
34837;DHT22;21053;50.848;4.652;2023-04-25T05:24:50;8.40;99.90
34837;DHT22;21053;50.848;4.652;2023-04-25T05:27:20;8.50;99.90
34837;DHT22;21053;50.848;4.652;2023-04-25T05:29:51;8.50;99.90
34837;DHT22;21053;50.848;4.652;2023-04-25T05:32:21;8.30;99.90
34837;DHT22;21053;50.848;4.652;2023-04-25T05:34:47;8.40;99.90
34837;DHT22;21053;50.848;4.652;2023-04-25T05:37:14;8.60;99.90
34837;DHT22;21053;50.848;4.652;2023-04-25T05:39:43;8.80;99.90
34837;DHT22;21053;50.848;4.652;2023-04-25T05:42:09;8.80;99.90
34837;DHT22;21053;50.848;4.652;2023-04-25T05:44:38;8.80;99.90
34837;DHT22;21053;50.848;4.652;2023-04-25T05:47:06;8.70;99.90
34837;DHT22;21053;50.848;4.652;2023-04-25T05:49:35;8.80;99.90
34837;DHT22;21053;50.848;4.652;2023-04-25T05:52:04;8.90;99.90
34837;DHT22;21053;50.848;4.652;2023-04-25T05:54:33;9.00;99.90
34837;DHT22;21053;50.848;4.652;2023-04-25T05:56:59;9.10;99.90
34837;DHT22;21053;50.848;4.652;2023-04-25T05:59:25;9.10;99.90
34837;DHT22;21053;50.848;4.652;2023-04-25T06:01:54;9.10;99.90
34837;DHT22;21053;50.848;4.652;2023-04-25T06:04:21;9.10;99.90
34837;DHT22;21053;50.848;4.652;2023-04-25T06:06:50;9.10;99.90
34837;DHT22;21053;50.848;4.652;2023-04-25T06:09:18;9.10;99.90
34837;DHT22;21053;50.848;4.652;2023-04-25T06:11:47;9.10;99.90
34837;DHT22;21053;50.848;4.652;2023-04-25T06:14:16;9.20;99.90
34837;DHT22;21053;50.848;4.652;2023-04-25T06:16:45;9.10;99.90
34837;DHT22;21053;50.848;4.652;2023-04-25T06:19:14;8.90;99.90
34837;DHT22;21053;50.848;4.652;2023-04-25T06:21:39;8.90;99.90
34837;DHT22;21053;50.848;4.652;2023-04-25T06:24:06;8.70;99.90
34837;DHT22;21053;50.848;4.652;2023-04-25T06:26:32;8.70;99.90
34837;DHT22;21053;50.848;4.652;2023-04-25T06:29:01;9.00;99.90
34837;DHT22;21053;50.848;4.652;2023-04-25T06:31:29;9.20;99.90
34837;DHT22;21053;50.848;4.652;2023-04-25T06:34:03;9.10;99.90
34837;DHT22;21053;50.848;4.652;2023-04-25T06:36:30;8.90;99.90
34837;DHT22;21053;50.848;4.652;2023-04-25T06:38:56;8.70;99.90
34837;DHT22;21053;50.848;4.652;2023-04-25T06:41:23;8.80;99.90
34837;DHT22;21053;50.848;4.652;2023-04-25T06:43:49;8.80;99.90
34837;DHT22;21053;50.848;4.652;2023-04-25T06:46:15;8.90;99.90
34837;DHT22;21053;50.848;4.652;2023-04-25T06:48:45;9.00;99.90
34837;DHT22;21053;50.848;4.652;2023-04-25T06:51:11;9.10;99.90
34837;DHT22;21053;50.848;4.652;2023-04-25T06:53:38;9.30;99.90
34837;DHT22;21053;50.848;4.652;2023-04-25T06:56:07;9.50;99.90
34837;DHT22;21053;50.848;4.652;2023-04-25T06:58:36;9.50;99.90
34837;DHT22;21053;50.848;4.652;2023-04-25T07:01:05;9.80;99.90
34837;DHT22;21053;50.848;4.652;2023-04-25T07:03:34;9.80;99.90
34837;DHT22;21053;50.848;4.652;2023-04-25T07:06:03;9.50;99.90
34837;DHT22;21053;50.848;4.652;2023-04-25T07:08:30;9.30;99.90
34837;DHT22;21053;50.848;4.652;2023-04-25T07:10:55;9.50;99.90
34837;DHT22;21053;50.848;4.652;2023-04-25T07:13:21;9.70;99.90
34837;DHT22;21053;50.848;4.652;2023-04-25T07:15:48;9.60;99.90
34837;DHT22;21053;50.848;4.652;2023-04-25T07:18:14;9.30;99.90
34837;DHT22;21053;50.848;4.652;2023-04-25T07:20:43;9.10;99.90
34837;DHT22;21053;50.848;4.652;2023-04-25T07:23:08;9.20;99.90
34837;DHT22;21053;50.848;4.652;2023-04-25T07:25:35;9.30;99.90
34837;DHT22;21053;50.848;4.652;2023-04-25T07:28:04;9.50;99.90
34837;DHT22;21053;50.848;4.652;2023-04-25T07:30:33;9.60;99.90
34837;DHT22;21053;50.848;4.652;2023-04-25T07:33:06;9.40;99.90
34837;DHT22;21053;50.848;4.652;2023-04-25T07:35:31;9.40;99.90
34837;DHT22;21053;50.848;4.652;2023-04-25T07:38:01;9.50;99.90
34837;DHT22;21053;50.848;4.652;2023-04-25T07:40:28;9.40;99.90
34837;DHT22;21053;50.848;4.652;2023-04-25T07:42:54;9.60;99.90
34837;DHT22;21053;50.848;4.652;2023-04-25T07:45:23;9.90;99.90
34837;DHT22;21053;50.848;4.652;2023-04-25T07:47:50;10.00;99.90
34837;DHT22;21053;50.848;4.652;2023-04-25T07:50:19;10.00;99.90
34837;DHT22;21053;50.848;4.652;2023-04-25T07:52:46;10.20;99.90
34837;DHT22;21053;50.848;4.652;2023-04-25T07:55:15;10.20;99.90
34837;DHT22;21053;50.848;4.652;2023-04-25T07:57:47;10.40;99.90
34837;DHT22;21053;50.848;4.652;2023-04-25T08:00:19;10.50;99.90
34837;DHT22;21053;50.848;4.652;2023-04-25T08:02:48;10.90;99.90
34837;DHT22;21053;50.848;4.652;2023-04-25T08:05:14;11.30;99.90
34837;DHT22;21053;50.848;4.652;2023-04-25T08:07:42;11.70;99.90
34837;DHT22;21053;50.848;4.652;2023-04-25T08:10:14;12.10;99.90
34837;DHT22;21053;50.848;4.652;2023-04-25T08:12:42;12.00;99.90
34837;DHT22;21053;50.848;4.652;2023-04-25T08:15:14;11.90;99.90
34837;DHT22;21053;50.848;4.652;2023-04-25T08:17:40;12.00;99.90
34837;DHT22;21053;50.848;4.652;2023-04-25T08:20:10;12.10;99.90
34837;DHT22;21053;50.848;4.652;2023-04-25T08:22:39;12.00;99.90
34837;DHT22;21053;50.848;4.652;2023-04-25T08:25:07;11.60;99.90
34837;DHT22;21053;50.848;4.652;2023-04-25T08:27:36;11.50;99.90
34837;DHT22;21053;50.848;4.652;2023-04-25T08:30:03;11.20;99.90
34837;DHT22;21053;50.848;4.652;2023-04-25T08:32:32;10.80;99.90
34837;DHT22;21053;50.848;4.652;2023-04-25T08:35:02;10.60;99.90
34837;DHT22;21053;50.848;4.652;2023-04-25T08:37:28;10.30;99.90
34837;DHT22;21053;50.848;4.652;2023-04-25T08:39:57;10.10;99.90
34837;DHT22;21053;50.848;4.652;2023-04-25T08:42:24;9.70;99.90
34837;DHT22;21053;50.848;4.652;2023-04-25T08:44:55;9.50;99.90
34837;DHT22;21053;50.848;4.652;2023-04-25T08:47:25;9.30;99.90
34837;DHT22;21053;50.848;4.652;2023-04-25T08:49:55;9.00;99.90
34837;DHT22;21053;50.848;4.652;2023-04-25T08:52:35;8.90;99.90
34837;DHT22;21053;50.848;4.652;2023-04-25T08:55:05;8.90;99.90
34837;DHT22;21053;50.848;4.652;2023-04-25T08:57:35;8.90;99.90
34837;DHT22;21053;50.848;4.652;2023-04-25T09:00:07;9.00;99.90
34837;DHT22;21053;50.848;4.652;2023-04-25T09:02:36;9.40;99.90
34837;DHT22;21053;50.848;4.652;2023-04-25T09:05:06;9.80;99.90
34837;DHT22;21053;50.848;4.652;2023-04-25T09:07:32;10.00;99.90
34837;DHT22;21053;50.848;4.652;2023-04-25T09:10:00;10.10;99.90
34837;DHT22;21053;50.848;4.652;2023-04-25T09:12:31;10.80;99.90
34837;DHT22;21053;50.848;4.652;2023-04-25T09:17:35;16.80;90.40
34837;DHT22;21053;50.848;4.652;2023-04-25T09:20:09;20.20;77.90
34837;DHT22;21053;50.848;4.652;2023-04-25T09:22:38;22.80;66.70
34837;DHT22;21053;50.848;4.652;2023-04-25T09:25:11;23.20;63.60
34837;DHT22;21053;50.848;4.652;2023-04-25T09:27:50;25.40;56.90
34837;DHT22;21053;50.848;4.652;2023-04-25T09:30:17;24.80;51.40
34837;DHT22;21053;50.848;4.652;2023-04-25T09:32:49;22.20;55.10
34837;DHT22;21053;50.848;4.652;2023-04-25T09:35:24;19.30;62.00
34837;DHT22;21053;50.848;4.652;2023-04-25T09:37:54;16.70;71.30
34837;DHT22;21053;50.848;4.652;2023-04-25T09:40:22;16.20;72.50
34837;DHT22;21053;50.848;4.652;2023-04-25T09:42:49;15.20;75.20
34837;DHT22;21053;50.848;4.652;2023-04-25T09:45:19;13.40;81.40
34837;DHT22;21053;50.848;4.652;2023-04-25T09:47:45;12.20;85.40
34837;DHT22;21053;50.848;4.652;2023-04-25T09:50:17;11.60;90.70
34837;DHT22;21053;50.848;4.652;2023-04-25T09:53:05;11.00;91.70
34837;DHT22;21053;50.848;4.652;2023-04-25T09:55:35;10.50;93.30
34837;DHT22;21053;50.848;4.652;2023-04-25T09:58:05;10.20;94.20
34837;DHT22;21053;50.848;4.652;2023-04-25T10:00:34;10.30;95.10
34837;DHT22;21053;50.848;4.652;2023-04-25T10:03:05;10.60;96.20
34837;DHT22;21053;50.848;4.652;2023-04-25T10:05:34;10.80;95.40
34837;DHT22;21053;50.848;4.652;2023-04-25T10:08:04;10.90;94.20
34837;DHT22;21053;50.848;4.652;2023-04-25T10:10:31;11.10;94.50
34837;DHT22;21053;50.848;4.652;2023-04-25T10:13:05;11.60;93.60
34837;DHT22;21053;50.848;4.652;2023-04-25T10:15:34;13.80;91.60
34837;DHT22;21053;50.848;4.652;2023-04-25T10:18:03;15.80;86.90
34837;DHT22;21053;50.848;4.652;2023-04-25T10:20:30;17.10;77.90
34837;DHT22;21053;50.848;4.652;2023-04-25T10:23:03;17.50;74.20
34837;DHT22;21053;50.848;4.652;2023-04-25T10:25:32;18.10;73.70
34837;DHT22;21053;50.848;4.652;2023-04-25T10:28:03;19.10;67.40
34837;DHT22;21053;50.848;4.652;2023-04-25T10:30:30;22.10;58.80
34837;DHT22;21053;50.848;4.652;2023-04-25T10:32:59;24.90;54.80
34837;DHT22;21053;50.848;4.652;2023-04-25T10:35:30;23.20;52.90
34837;DHT22;21053;50.848;4.652;2023-04-25T10:38:05;19.90;57.70
34837;DHT22;21053;50.848;4.652;2023-04-25T10:40:32;17.90;62.10
34837;DHT22;21053;50.848;4.652;2023-04-25T10:43:36;15.50;70.20
34837;DHT22;21053;50.848;4.652;2023-04-25T10:46:22;14.40;73.90
34837;DHT22;21053;50.848;4.652;2023-04-25T10:48:59;14.00;75.60
34837;DHT22;21053;50.848;4.652;2023-04-25T10:51:31;14.10;78.40
34837;DHT22;21053;50.848;4.652;2023-04-25T10:54:04;14.50;78.70
34837;DHT22;21053;50.848;4.652;2023-04-25T10:59:17;19.30;64.20
34837;DHT22;21053;50.848;4.652;2023-04-25T11:01:52;21.10;57.60
34837;DHT22;21053;50.848;4.652;2023-04-25T11:07:23;21.00;59.00
34837;DHT22;21053;50.848;4.652;2023-04-25T11:09:52;19.10;60.20
34837;DHT22;21053;50.848;4.652;2023-04-25T11:12:18;17.10;63.10
34837;DHT22;21053;50.848;4.652;2023-04-25T11:14:44;16.30;64.50
34837;DHT22;21053;50.848;4.652;2023-04-25T11:17:11;16.10;66.70
34837;DHT22;21053;50.848;4.652;2023-04-25T11:19:37;15.60;67.90
34837;DHT22;21053;50.848;4.652;2023-04-25T11:22:10;14.40;72.50
34837;DHT22;21053;50.848;4.652;2023-04-25T11:24:39;14.10;75.50
34837;DHT22;21053;50.848;4.652;2023-04-25T11:27:08;14.00;75.50
34837;DHT22;21053;50.848;4.652;2023-04-25T11:29:35;12.90;76.20
34837;DHT22;21053;50.848;4.652;2023-04-25T11:32:04;12.70;81.10
34837;DHT22;21053;50.848;4.652;2023-04-25T11:34:33;12.10;85.50
34837;DHT22;21053;50.848;4.652;2023-04-25T11:37:01;12.00;89.10
34837;DHT22;21053;50.848;4.652;2023-04-25T11:39:30;12.00;89.70
34837;DHT22;21053;50.848;4.652;2023-04-25T11:41:56;11.70;90.90
34837;DHT22;21053;50.848;4.652;2023-04-25T11:44:23;11.50;91.90
34837;DHT22;21053;50.848;4.652;2023-04-25T11:46:49;11.40;92.00
34837;DHT22;21053;50.848;4.652;2023-04-25T11:49:16;11.60;91.20
34837;DHT22;21053;50.848;4.652;2023-04-25T11:51:45;11.80;91.10
34837;DHT22;21053;50.848;4.652;2023-04-25T11:54:14;11.90;90.90
34837;DHT22;21053;50.848;4.652;2023-04-25T11:56:46;12.10;91.60
34837;DHT22;21053;50.848;4.652;2023-04-25T11:59:12;12.40;91.20
34837;DHT22;21053;50.848;4.652;2023-04-25T12:01:41;12.80;88.80
34837;DHT22;21053;50.848;4.652;2023-04-25T12:06:41;13.90;82.60
34837;DHT22;21053;50.848;4.652;2023-04-25T12:09:09;14.20;83.50
34837;DHT22;21053;50.848;4.652;2023-04-25T12:11:42;14.00;81.30
34837;DHT22;21053;50.848;4.652;2023-04-25T12:14:27;13.50;83.00
34837;DHT22;21053;50.848;4.652;2023-04-25T12:16:58;13.00;81.80
34837;DHT22;21053;50.848;4.652;2023-04-25T12:22:50;13.00;80.90
34837;DHT22;21053;50.848;4.652;2023-04-25T12:25:38;13.70;83.10
34837;DHT22;21053;50.848;4.652;2023-04-25T12:28:18;14.30;81.40
34837;DHT22;21053;50.848;4.652;2023-04-25T12:31:03;14.80;81.70
34837;DHT22;21053;50.848;4.652;2023-04-25T12:33:36;15.20;74.10
34837;DHT22;21053;50.848;4.652;2023-04-25T12:36:07;14.90;69.20
34837;DHT22;21053;50.848;4.652;2023-04-25T12:38:41;14.10;74.60
34837;DHT22;21053;50.848;4.652;2023-04-25T12:41:09;13.90;76.60
34837;DHT22;21053;50.848;4.652;2023-04-25T12:43:34;13.80;77.40
34837;DHT22;21053;50.848;4.652;2023-04-25T12:46:01;13.90;75.80
34837;DHT22;21053;50.848;4.652;2023-04-25T12:48:29;14.10;75.40
34837;DHT22;21053;50.848;4.652;2023-04-25T12:50:56;14.40;75.20
34837;DHT22;21053;50.848;4.652;2023-04-25T12:53:24;14.30;74.10
34837;DHT22;21053;50.848;4.652;2023-04-25T12:55:50;14.20;72.20
34837;DHT22;21053;50.848;4.652;2023-04-25T12:58:19;13.80;74.50
34837;DHT22;21053;50.848;4.652;2023-04-25T13:00:46;13.30;74.40
34837;DHT22;21053;50.848;4.652;2023-04-25T13:03:12;12.90;75.80
34837;DHT22;21053;50.848;4.652;2023-04-25T13:05:41;13.50;79.20
34837;DHT22;21053;50.848;4.652;2023-04-25T13:08:07;14.40;76.80
34837;DHT22;21053;50.848;4.652;2023-04-25T13:10:33;14.80;74.20
34837;DHT22;21053;50.848;4.652;2023-04-25T13:12:59;15.10;70.20
34837;DHT22;21053;50.848;4.652;2023-04-25T13:15:26;15.00;65.80
34837;DHT22;21053;50.848;4.652;2023-04-25T13:17:52;14.50;66.20
34837;DHT22;21053;50.848;4.652;2023-04-25T13:20:18;14.30;72.10
34837;DHT22;21053;50.848;4.652;2023-04-25T13:22:47;14.50;71.20
34837;DHT22;21053;50.848;4.652;2023-04-25T13:25:13;15.00;71.70
34837;DHT22;21053;50.848;4.652;2023-04-25T13:27:39;14.90;73.60
34837;DHT22;21053;50.848;4.652;2023-04-25T13:30:09;14.80;72.60
34837;DHT22;21053;50.848;4.652;2023-04-25T13:32:35;14.30;74.50
34837;DHT22;21053;50.848;4.652;2023-04-25T13:35:05;14.30;73.20
34837;DHT22;21053;50.848;4.652;2023-04-25T13:37:31;14.20;74.20
34837;DHT22;21053;50.848;4.652;2023-04-25T13:40:03;14.20;75.70
34837;DHT22;21053;50.848;4.652;2023-04-25T13:42:31;14.00;73.10
34837;DHT22;21053;50.848;4.652;2023-04-25T13:44:56;13.70;74.30
34837;DHT22;21053;50.848;4.652;2023-04-25T13:47:23;13.90;75.50
34837;DHT22;21053;50.848;4.652;2023-04-25T13:49:49;14.00;73.70
34837;DHT22;21053;50.848;4.652;2023-04-25T13:52:15;14.30;69.00
34837;DHT22;21053;50.848;4.652;2023-04-25T13:54:44;14.60;68.00
34837;DHT22;21053;50.848;4.652;2023-04-25T13:57:11;14.40;69.80
34837;DHT22;21053;50.848;4.652;2023-04-25T13:59:43;14.60;70.40
34837;DHT22;21053;50.848;4.652;2023-04-25T14:02:12;14.20;69.10
34837;DHT22;21053;50.848;4.652;2023-04-25T14:04:38;14.20;70.00
34837;DHT22;21053;50.848;4.652;2023-04-25T14:07:05;14.00;71.10
34837;DHT22;21053;50.848;4.652;2023-04-25T14:09:31;14.30;73.40
34837;DHT22;21053;50.848;4.652;2023-04-25T14:12:00;14.40;69.60
34837;DHT22;21053;50.848;4.652;2023-04-25T14:14:27;14.60;70.00
34837;DHT22;21053;50.848;4.652;2023-04-25T14:16:56;14.50;68.00
34837;DHT22;21053;50.848;4.652;2023-04-25T14:19:24;14.00;70.10
34837;DHT22;21053;50.848;4.652;2023-04-25T14:21:51;13.50;71.60
34837;DHT22;21053;50.848;4.652;2023-04-25T14:24:20;12.90;73.80
34837;DHT22;21053;50.848;4.652;2023-04-25T14:26:49;12.40;76.80
34837;DHT22;21053;50.848;4.652;2023-04-25T14:29:16;12.10;77.50
34837;DHT22;21053;50.848;4.652;2023-04-25T14:31:45;12.10;78.40
34837;DHT22;21053;50.848;4.652;2023-04-25T14:34:10;12.10;76.40
34837;DHT22;21053;50.848;4.652;2023-04-25T14:36:36;12.10;76.10
34837;DHT22;21053;50.848;4.652;2023-04-25T14:39:04;12.20;76.50
34837;DHT22;21053;50.848;4.652;2023-04-25T14:41:32;12.30;73.40
34837;DHT22;21053;50.848;4.652;2023-04-25T14:43:58;12.60;75.40
34837;DHT22;21053;50.848;4.652;2023-04-25T14:46:25;13.20;73.30
34837;DHT22;21053;50.848;4.652;2023-04-25T14:48:54;13.10;74.70
34837;DHT22;21053;50.848;4.652;2023-04-25T14:51:22;12.90;74.10
34837;DHT22;21053;50.848;4.652;2023-04-25T14:53:48;12.60;74.90
34837;DHT22;21053;50.848;4.652;2023-04-25T14:56:18;12.40;76.50
34837;DHT22;21053;50.848;4.652;2023-04-25T14:58:46;12.20;77.30
34837;DHT22;21053;50.848;4.652;2023-04-25T15:01:15;12.20;76.40
34837;DHT22;21053;50.848;4.652;2023-04-25T15:03:44;12.20;76.10
34837;DHT22;21053;50.848;4.652;2023-04-25T15:06:11;12.20;75.50
34837;DHT22;21053;50.848;4.652;2023-04-25T15:08:56;12.30;76.80
34837;DHT22;21053;50.848;4.652;2023-04-25T15:11:22;12.40;76.10
34837;DHT22;21053;50.848;4.652;2023-04-25T15:13:48;12.60;76.80
34837;DHT22;21053;50.848;4.652;2023-04-25T15:16:17;12.40;77.00
34837;DHT22;21053;50.848;4.652;2023-04-25T15:18:46;12.40;75.30
34837;DHT22;21053;50.848;4.652;2023-04-25T15:21:11;12.90;75.90
34837;DHT22;21053;50.848;4.652;2023-04-25T15:23:40;13.00;74.80
34837;DHT22;21053;50.848;4.652;2023-04-25T15:26:08;13.10;73.90
34837;DHT22;21053;50.848;4.652;2023-04-25T15:28:34;13.10;73.70
34837;DHT22;21053;50.848;4.652;2023-04-25T15:31:03;12.90;75.80
34837;DHT22;21053;50.848;4.652;2023-04-25T15:33:32;12.70;74.60
34837;DHT22;21053;50.848;4.652;2023-04-25T15:35:57;12.50;76.50
34837;DHT22;21053;50.848;4.652;2023-04-25T15:38:25;12.30;78.50
34837;DHT22;21053;50.848;4.652;2023-04-25T15:40:55;12.30;77.60
34837;DHT22;21053;50.848;4.652;2023-04-25T15:43:21;12.30;73.60
34837;DHT22;21053;50.848;4.652;2023-04-25T15:45:47;12.30;74.90
34837;DHT22;21053;50.848;4.652;2023-04-25T15:48:16;12.50;75.90
34837;DHT22;21053;50.848;4.652;2023-04-25T15:50:45;12.60;72.30
34837;DHT22;21053;50.848;4.652;2023-04-25T15:53:26;12.60;72.40
34837;DHT22;21053;50.848;4.652;2023-04-25T15:55:52;12.80;74.10
34837;DHT22;21053;50.848;4.652;2023-04-25T15:58:19;13.00;73.70
34837;DHT22;21053;50.848;4.652;2023-04-25T16:00:45;12.90;72.50
34837;DHT22;21053;50.848;4.652;2023-04-25T16:03:14;12.80;73.30